createdAt,value
2017-11-07T00:03:32.662Z,21.17
2017-11-07T00:06:00.327Z,21.58
2017-11-07T00:08:27.989Z,22.27
2017-11-07T00:10:55.618Z,22.33
2017-11-07T00:13:23.313Z,23.08
2017-11-07T00:15:51.003Z,23.00
2017-11-07T00:18:18.644Z,21.12
2017-11-07T00:20:46.264Z,21.58
2017-11-07T00:23:14.144Z,19.80
2017-11-07T00:25:41.758Z,19.08
2017-11-07T00:28:09.558Z,22.58
2017-11-07T00:30:37.392Z,23.80
2017-11-07T00:33:05.048Z,22.45
2017-11-07T00:35:32.632Z,24.00
2017-11-07T00:38:00.203Z,23.57
2017-11-07T00:40:27.942Z,26.20
2017-11-07T00:42:55.606Z,26.23
2017-11-07T00:45:23.420Z,25.52
2017-11-07T00:47:51.061Z,25.95
2017-11-07T00:50:18.864Z,26.77
2017-11-07T00:52:46.464Z,27.98
2017-11-07T00:55:14.116Z,27.17
2017-11-07T00:57:41.970Z,27.17
2017-11-07T01:00:09.799Z,29.90
2017-11-07T01:02:37.462Z,28.45
2017-11-07T01:05:05.040Z,29.17
2017-11-07T01:07:32.639Z,26.27
2017-11-07T01:10:00.265Z,27.23
2017-11-07T01:12:27.879Z,27.87
2017-11-07T01:14:55.497Z,30.58
2017-11-07T01:17:23.137Z,29.73
2017-11-07T01:19:50.940Z,28.38
2017-11-07T01:22:18.580Z,26.80
2017-11-07T01:24:46.261Z,28.10
2017-11-07T01:27:13.945Z,28.03
2017-11-07T01:29:41.509Z,28.77
2017-11-07T01:32:09.128Z,28.70
2017-11-07T01:34:36.688Z,31.30
2017-11-07T01:37:04.268Z,30.62
2017-11-07T01:39:31.875Z,33.47
2017-11-07T01:41:59.677Z,46.23
2017-11-07T01:44:27.470Z,46.03
2017-11-07T01:46:55.071Z,41.88
2017-11-07T01:49:22.872Z,40.40
2017-11-07T01:51:50.469Z,35.97
2017-11-07T01:54:18.055Z,37.85
2017-11-07T01:56:45.832Z,34.20
2017-11-07T01:59:13.430Z,33.67
2017-11-07T02:01:41.069Z,31.65
2017-11-07T02:04:07.935Z,32.13
2017-11-07T02:06:35.590Z,33.22
2017-11-07T02:09:03.228Z,32.25
2017-11-07T02:11:30.987Z,34.83
2017-11-07T02:13:58.598Z,29.35
2017-11-07T02:16:26.243Z,31.12
2017-11-07T02:18:54.008Z,31.73
2017-11-07T02:21:21.667Z,31.92
2017-11-07T02:23:49.304Z,32.53
2017-11-07T02:26:17.126Z,29.77
2017-11-07T02:28:44.962Z,31.37
2017-11-07T02:31:12.623Z,32.35
2017-11-07T02:33:40.290Z,29.25
2017-11-07T02:36:07.942Z,30.70
2017-11-07T02:38:35.574Z,30.37
2017-11-07T02:41:03.262Z,30.80
2017-11-07T02:43:30.823Z,30.70
2017-11-07T02:45:58.495Z,30.75
2017-11-07T02:48:26.122Z,29.80
2017-11-07T02:50:53.717Z,29.80
2017-11-07T02:53:21.404Z,30.20
2017-11-07T02:55:48.994Z,30.37
2017-11-07T02:58:16.765Z,29.33
2017-11-07T03:00:44.388Z,29.87
2017-11-07T03:03:12.154Z,29.45
2017-11-07T03:05:39.811Z,30.77
2017-11-07T03:08:07.406Z,31.77
2017-11-07T03:10:35.184Z,30.90
2017-11-07T03:13:02.818Z,28.15
2017-11-07T03:15:30.456Z,31.60
2017-11-07T03:17:58.283Z,29.90
2017-11-07T03:20:25.845Z,31.12
2017-11-07T03:22:53.509Z,29.55
2017-11-07T03:25:21.043Z,30.77
2017-11-07T03:27:48.639Z,29.63
2017-11-07T03:30:16.267Z,27.77
2017-11-07T03:32:43.829Z,28.15
2017-11-07T03:35:11.393Z,29.17
2017-11-07T03:37:40.033Z,29.00
2017-11-07T03:40:07.842Z,27.75
2017-11-07T03:42:35.644Z,28.17
2017-11-07T03:45:03.303Z,26.60
2017-11-07T03:47:30.920Z,27.80
2017-11-07T03:49:58.565Z,27.67
2017-11-07T03:52:26.166Z,28.73
2017-11-07T03:54:53.831Z,30.33
2017-11-07T03:57:21.708Z,28.90
2017-11-07T03:59:49.358Z,28.02
2017-11-07T04:02:16.998Z,28.45
2017-11-07T04:04:44.780Z,27.80
2017-11-07T04:07:12.366Z,28.45
2017-11-07T04:09:40.183Z,26.83
2017-11-07T04:12:07.763Z,27.35
2017-11-07T04:14:35.440Z,29.10
2017-11-07T04:17:03.018Z,28.90
2017-11-07T04:19:30.581Z,26.00
2017-11-07T04:21:58.213Z,29.92
2017-11-07T04:24:26.005Z,28.45
2017-11-07T04:26:53.819Z,28.02
2017-11-07T04:29:21.443Z,26.02
2017-11-07T04:31:49.258Z,24.40
2017-11-07T04:34:17.035Z,25.50
2017-11-07T04:36:44.628Z,24.15
2017-11-07T04:39:12.530Z,25.55
2017-11-07T04:41:40.113Z,27.83
2017-11-07T04:44:07.728Z,24.87
2017-11-07T04:46:35.561Z,27.37
2017-11-07T04:49:03.354Z,29.02
2017-11-07T04:51:30.956Z,30.83
2017-11-07T04:53:58.636Z,31.00
2017-11-07T04:56:26.398Z,32.83
2017-11-07T04:58:54.735Z,31.62
2017-11-07T05:01:22.526Z,30.77
2017-11-07T05:03:50.190Z,34.08
2017-11-07T05:06:17.799Z,24.58
2017-11-07T05:08:45.615Z,26.02
2017-11-07T05:11:13.415Z,24.23
2017-11-07T05:13:42.784Z,27.10
2017-11-07T05:16:10.980Z,26.08
2017-11-07T05:18:38.633Z,23.30
2017-11-07T05:21:06.448Z,24.27
2017-11-07T05:23:34.218Z,24.10
2017-11-07T05:26:01.823Z,22.73
2017-11-07T05:28:29.507Z,22.95
2017-11-07T05:30:57.140Z,25.27
2017-11-07T05:33:24.935Z,26.60
2017-11-07T05:35:53.213Z,20.88
2017-11-07T05:38:21.008Z,23.83
2017-11-07T05:40:48.819Z,23.33
2017-11-07T05:43:16.480Z,22.45
2017-11-07T05:45:44.099Z,22.95
2017-11-07T05:48:11.730Z,21.97
2017-11-07T05:50:39.438Z,22.20
2017-11-07T05:53:07.233Z,20.70
2017-11-07T05:55:34.840Z,25.30
2017-11-07T05:58:02.438Z,21.43
2017-11-07T06:00:30.450Z,19.37
2017-11-07T06:02:58.218Z,19.67
2017-11-07T06:05:25.843Z,17.47
2017-11-07T06:07:53.513Z,22.33
2017-11-07T06:10:21.075Z,21.00
2017-11-07T06:12:48.805Z,20.57
2017-11-07T06:15:16.634Z,19.87
2017-11-07T06:17:44.329Z,20.47
2017-11-07T06:20:11.952Z,18.93
2017-11-07T06:22:39.511Z,20.23
2017-11-07T06:25:07.340Z,20.60
2017-11-07T06:27:35.004Z,20.60
2017-11-07T06:30:02.666Z,21.60
2017-11-07T06:32:30.457Z,21.60
2017-11-07T06:34:58.057Z,22.97
2017-11-07T06:37:25.665Z,22.07
2017-11-07T06:39:53.216Z,24.47
2017-11-07T06:42:20.827Z,25.27
2017-11-07T06:44:48.610Z,26.67
2017-11-07T06:47:16.232Z,22.90
2017-11-07T06:49:43.827Z,26.73
2017-11-07T06:52:11.600Z,26.70
2017-11-07T06:54:39.462Z,26.87
2017-11-07T06:57:07.135Z,26.20
2017-11-07T06:59:34.848Z,27.57
2017-11-07T07:02:02.693Z,21.30
2017-11-07T07:04:30.353Z,23.40
2017-11-07T07:06:57.972Z,23.90
2017-11-07T07:09:25.650Z,22.40
2017-11-07T07:11:53.488Z,21.33
2017-11-07T07:14:21.101Z,21.40
2017-11-07T07:16:48.686Z,20.57
2017-11-07T07:19:16.351Z,20.40
2017-11-07T07:21:44.236Z,20.23
2017-11-07T07:24:11.866Z,19.90
2017-11-07T07:26:39.671Z,21.40
2017-11-07T07:29:07.428Z,21.30
2017-11-07T07:31:35.219Z,18.80
2017-11-07T07:34:02.869Z,20.30
2017-11-07T07:36:30.521Z,19.53
2017-11-07T07:38:58.143Z,18.07
2017-11-07T07:41:25.895Z,17.30
2017-11-07T07:43:53.749Z,18.90
2017-11-07T07:46:21.330Z,17.67
2017-11-07T07:48:48.929Z,17.80
2017-11-07T07:51:16.575Z,18.20
2017-11-07T07:53:44.118Z,19.57
2017-11-07T07:56:11.931Z,18.47
2017-11-07T07:58:39.529Z,18.40
2017-11-07T08:01:07.324Z,18.43
2017-11-07T08:03:35.161Z,18.33
2017-11-07T08:06:02.862Z,19.20
2017-11-07T08:08:30.789Z,18.40
2017-11-07T08:10:58.447Z,18.83
2017-11-07T08:13:26.132Z,17.80
2017-11-07T08:15:53.919Z,18.90
2017-11-07T08:18:21.536Z,18.50
2017-11-07T08:20:49.295Z,18.10
2017-11-07T08:23:16.952Z,18.57
2017-11-07T08:25:44.550Z,18.30
2017-11-07T08:28:12.366Z,18.03
2017-11-07T08:30:39.907Z,16.53
2017-11-07T08:33:07.503Z,16.97
2017-11-07T08:35:35.327Z,16.37
2017-11-07T08:38:02.857Z,17.63
2017-11-07T08:40:30.471Z,18.50
2017-11-07T08:42:57.993Z,17.60
2017-11-07T08:45:25.774Z,18.20
2017-11-07T08:47:53.369Z,18.97
2017-11-07T08:50:20.892Z,16.10
2017-11-07T08:52:48.425Z,20.00
2017-11-07T08:55:16.040Z,19.30
2017-11-07T08:57:43.536Z,18.20
2017-11-07T09:00:11.047Z,17.33
2017-11-07T09:02:38.639Z,17.03
2017-11-07T09:05:06.182Z,15.90
2017-11-07T09:07:33.759Z,15.57
2017-11-07T09:10:02.155Z,16.27
2017-11-07T09:12:30.614Z,16.00
2017-11-07T09:14:58.115Z,15.30
2017-11-07T09:17:25.756Z,16.30
2017-11-07T09:19:53.332Z,15.40
2017-11-07T09:22:20.934Z,15.27
2017-11-07T09:24:48.614Z,16.30
2017-11-07T09:27:16.181Z,15.27
2017-11-07T09:29:43.970Z,15.70
2017-11-07T09:32:11.598Z,13.30
2017-11-07T09:34:39.139Z,15.50
2017-11-07T09:37:06.650Z,15.30
2017-11-07T09:39:34.239Z,15.80
2017-11-07T09:42:01.814Z,15.57
2017-11-07T09:44:29.356Z,16.93
2017-11-07T09:46:56.906Z,15.63
2017-11-07T09:49:24.407Z,16.73
2017-11-07T09:51:51.938Z,16.20
2017-11-07T09:54:19.499Z,15.97
2017-11-07T09:56:47.043Z,16.03
2017-11-07T09:59:14.565Z,15.30
2017-11-07T10:01:42.128Z,15.80
2017-11-07T10:04:09.727Z,15.90
2017-11-07T10:06:37.274Z,14.90
2017-11-07T10:09:04.846Z,16.20
2017-11-07T10:11:32.355Z,16.43
2017-11-07T10:13:59.948Z,15.90
2017-11-07T10:16:27.513Z,15.77
2017-11-07T10:18:55.050Z,15.07
2017-11-07T10:21:22.888Z,15.60
2017-11-07T10:23:50.438Z,17.23
2017-11-07T10:26:18.030Z,14.83
2017-11-07T10:28:46.483Z,16.57
2017-11-07T10:31:14.387Z,15.03
2017-11-07T10:33:41.974Z,14.70
2017-11-07T10:36:09.538Z,15.30
2017-11-07T10:38:37.132Z,15.73
2017-11-07T10:41:04.636Z,15.50
2017-11-07T10:43:32.154Z,14.23
2017-11-07T10:45:59.726Z,15.20
2017-11-07T10:48:27.280Z,15.77
2017-11-07T10:50:54.807Z,14.87
2017-11-07T10:53:22.406Z,15.90
2017-11-07T10:55:49.959Z,16.00
2017-11-07T10:58:17.536Z,17.17
2017-11-07T11:00:45.104Z,17.87
2017-11-07T11:03:12.735Z,16.73
2017-11-07T11:05:40.299Z,16.60
2017-11-07T11:08:07.875Z,16.03
2017-11-07T11:10:35.391Z,17.23
2017-11-07T11:13:02.896Z,15.50
2017-11-07T11:15:30.483Z,15.90
2017-11-07T11:17:58.076Z,16.37
2017-11-07T11:20:25.583Z,15.20
2017-11-07T11:22:53.342Z,15.70
2017-11-07T11:25:20.831Z,17.23
2017-11-07T11:27:48.339Z,16.43
2017-11-07T11:30:16.216Z,17.60
2017-11-07T11:32:43.856Z,16.50
2017-11-07T11:35:11.461Z,15.33
2017-11-07T11:37:39.110Z,16.50
2017-11-07T11:40:06.655Z,18.20
2017-11-07T11:42:34.206Z,15.50
2017-11-07T11:45:01.852Z,14.20
2017-11-07T11:47:29.603Z,15.27
2017-11-07T11:49:58.276Z,14.20
2017-11-07T11:52:25.954Z,15.10
2017-11-07T11:54:53.527Z,17.13
2017-11-07T11:57:21.080Z,15.10
2017-11-07T11:59:48.707Z,14.70
2017-11-07T12:02:16.314Z,15.57
2017-11-07T12:04:44.164Z,16.87
2017-11-07T12:07:11.719Z,17.47
2017-11-07T12:09:39.502Z,17.77
2017-11-07T12:12:07.235Z,15.80
2017-11-07T12:14:34.834Z,16.23
2017-11-07T12:17:02.407Z,15.20
2017-11-07T12:19:29.963Z,15.57
2017-11-07T12:21:57.560Z,16.13
2017-11-07T12:24:25.460Z,15.90
2017-11-07T12:26:53.192Z,14.60
2017-11-07T12:29:20.840Z,16.30
2017-11-07T12:31:48.560Z,15.83
2017-11-07T12:34:16.105Z,14.90
2017-11-07T12:36:43.763Z,14.83
2017-11-07T12:39:11.542Z,15.27
2017-11-07T12:41:39.155Z,14.73
2017-11-07T12:44:06.899Z,15.03
2017-11-07T12:46:34.421Z,16.23
2017-11-07T12:49:01.953Z,15.30
2017-11-07T12:54:35.375Z,16.37
2017-11-07T12:57:02.947Z,15.60
2017-11-07T12:59:30.606Z,17.13
2017-11-07T13:01:58.170Z,15.80
2017-11-07T13:04:25.703Z,16.00
2017-11-07T13:06:53.295Z,16.87
2017-11-07T13:09:20.921Z,15.17
2017-11-07T13:11:48.442Z,14.30
2017-11-07T13:14:16.360Z,16.23
2017-11-07T13:16:43.923Z,14.03
2017-11-07T13:19:11.488Z,15.67
2017-11-07T13:21:39.019Z,16.03
2017-11-07T13:24:06.660Z,15.70
2017-11-07T13:26:34.255Z,16.00
2017-11-07T13:29:01.854Z,14.70
2017-11-07T13:31:29.422Z,16.23
2017-11-07T13:33:57.092Z,15.10
2017-11-07T13:36:24.686Z,18.07
2017-11-07T13:38:52.343Z,17.57
2017-11-07T13:41:19.861Z,15.53
2017-11-07T13:43:47.419Z,16.67
2017-11-07T13:46:15.205Z,16.43
2017-11-07T13:48:42.820Z,16.47
2017-11-07T13:51:10.356Z,17.93
2017-11-07T13:53:37.957Z,18.40
2017-11-07T13:56:05.691Z,17.60
2017-11-07T13:58:33.283Z,18.53
2017-11-07T14:01:00.900Z,18.80
2017-11-07T14:03:28.411Z,18.23
2017-11-07T14:05:55.943Z,17.80
2017-11-07T14:08:23.547Z,17.57
2017-11-07T14:10:51.200Z,19.60
2017-11-07T14:13:18.745Z,20.80
2017-11-07T14:15:46.325Z,20.00
2017-11-07T14:18:13.894Z,22.27
2017-11-07T14:20:41.441Z,22.93
2017-11-07T14:23:09.060Z,21.87
2017-11-07T14:25:36.644Z,21.93
2017-11-07T14:28:04.170Z,22.40
2017-11-07T14:30:31.727Z,21.87
2017-11-07T14:32:59.304Z,22.17
2017-11-07T14:35:26.860Z,21.63
2017-11-07T14:37:54.402Z,21.20
2017-11-07T14:40:21.992Z,21.03
2017-11-07T14:42:49.883Z,23.97
2017-11-07T14:45:17.473Z,23.83
2017-11-07T14:47:45.204Z,26.70
2017-11-07T14:50:12.778Z,27.87
2017-11-07T14:52:40.571Z,28.03
2017-11-07T14:55:08.134Z,25.03
2017-11-07T14:57:35.695Z,25.47
2017-11-07T15:00:11.102Z,24.10
2017-11-07T15:02:38.677Z,24.77
2017-11-07T15:05:06.223Z,25.43
2017-11-07T15:07:33.810Z,24.50
2017-11-07T15:10:01.388Z,23.30
2017-11-07T15:12:29.159Z,25.03
2017-11-07T15:14:56.753Z,25.30
2017-11-07T15:17:24.315Z,24.90
2017-11-07T15:19:51.872Z,27.07
2017-11-07T15:22:19.428Z,25.40
2017-11-07T15:24:47.392Z,27.00
2017-11-07T15:27:15.232Z,26.73
2017-11-07T15:29:42.969Z,26.37
2017-11-07T15:32:10.914Z,26.60
2017-11-07T15:34:38.526Z,27.40
2017-11-07T15:37:06.233Z,26.30
2017-11-07T15:39:35.966Z,28.37
2017-11-07T15:42:03.523Z,27.37
2017-11-07T15:44:31.970Z,26.93
2017-11-07T15:46:59.550Z,27.50
2017-11-07T15:49:29.191Z,27.03
2017-11-07T15:51:56.719Z,26.40
2017-11-07T15:54:24.325Z,25.30
2017-11-07T15:56:51.884Z,25.00
2017-11-07T15:59:19.426Z,22.33
2017-11-07T16:01:46.987Z,24.27
2017-11-07T16:04:14.491Z,23.77
2017-11-07T16:06:42.121Z,24.60
2017-11-07T16:09:09.724Z,24.00
2017-11-07T16:11:37.303Z,24.50
2017-11-07T16:14:04.843Z,23.57
2017-11-07T16:16:32.431Z,25.10
2017-11-07T16:19:00.043Z,26.30
2017-11-07T16:21:27.547Z,25.80
2017-11-07T16:23:55.168Z,25.50
2017-11-07T16:26:22.735Z,26.23
2017-11-07T16:28:49.614Z,27.00
2017-11-07T16:31:17.183Z,26.93
2017-11-07T16:33:44.842Z,28.80
2017-11-07T16:36:12.433Z,29.10
2017-11-07T16:38:40.019Z,26.33
2017-11-07T16:41:07.567Z,29.67
2017-11-07T16:43:35.159Z,29.67
2017-11-07T16:46:02.740Z,30.63
2017-11-07T16:48:30.521Z,26.63
2017-11-07T16:50:58.364Z,28.70
2017-11-07T16:53:26.836Z,26.67
2017-11-07T16:55:54.462Z,29.83
2017-11-07T16:58:21.983Z,31.57
2017-11-07T17:00:49.562Z,32.87
2017-11-07T17:03:17.139Z,30.50
2017-11-07T17:05:44.771Z,27.73
2017-11-07T17:08:12.346Z,26.23
2017-11-07T17:10:39.847Z,25.97
2017-11-07T17:13:07.412Z,25.33
2017-11-07T17:15:35.014Z,28.90
2017-11-07T17:18:02.651Z,30.77
2017-11-07T17:20:31.030Z,35.00
2017-11-07T17:22:58.610Z,35.93
2017-11-07T17:25:26.306Z,36.83
2017-11-07T17:27:54.195Z,36.20
2017-11-07T17:30:21.933Z,33.70
2017-11-07T17:32:49.591Z,37.33
2017-11-07T17:35:17.148Z,39.03
2017-11-07T17:37:44.723Z,38.00
2017-11-07T17:40:12.342Z,40.93
2017-11-07T17:42:39.922Z,37.93
2017-11-07T17:45:07.688Z,38.40
2017-11-07T17:47:35.263Z,41.37
2017-11-07T17:50:02.786Z,44.50
2017-11-07T17:52:30.428Z,45.73
2017-11-07T17:54:57.966Z,42.17
2017-11-07T17:57:25.697Z,40.13
2017-11-07T17:59:54.298Z,44.47
2017-11-07T18:02:21.986Z,42.70
2017-11-07T18:04:49.584Z,43.67
2017-11-07T18:07:17.618Z,40.00
2017-11-07T18:09:45.230Z,37.20
2017-11-07T18:12:12.978Z,39.83
2017-11-07T18:14:40.718Z,40.93
2017-11-07T18:17:08.852Z,43.50
2017-11-07T18:19:36.442Z,40.63
2017-11-07T18:22:04.061Z,41.30
2017-11-07T18:24:31.680Z,41.17
2017-11-07T18:26:59.207Z,39.30
2017-11-07T18:29:26.780Z,45.30
2017-11-07T18:31:54.376Z,44.00
2017-11-07T18:34:21.948Z,39.37
2017-11-07T18:36:49.570Z,37.53
2017-11-07T18:39:17.150Z,35.17
2017-11-07T18:41:44.668Z,33.53
2017-11-07T18:44:12.263Z,32.40
2017-11-07T18:46:39.836Z,30.90
2017-11-07T18:49:07.374Z,30.87
2017-11-07T18:51:35.206Z,30.70
2017-11-07T18:54:02.815Z,32.60
2017-11-07T18:56:30.406Z,32.83
2017-11-07T18:58:57.993Z,34.17
2017-11-07T19:01:25.595Z,34.73
2017-11-07T19:03:53.266Z,34.55
2017-11-07T19:06:20.800Z,36.37
2017-11-07T19:08:48.425Z,31.57
2017-11-07T19:11:15.983Z,35.67
2017-11-07T19:13:43.530Z,36.13
2017-11-07T19:16:11.210Z,36.53
2017-11-07T19:18:38.750Z,36.57
2017-11-07T19:21:06.371Z,36.37
2017-11-07T19:23:33.964Z,32.20
2017-11-07T19:26:02.030Z,30.43
2017-11-07T19:28:29.602Z,29.17
2017-11-07T19:30:58.119Z,28.00
2017-11-07T19:33:25.698Z,26.43
2017-11-07T19:35:53.535Z,30.07
2017-11-07T19:38:24.935Z,30.30
2017-11-07T19:40:52.558Z,31.73
2017-11-07T19:43:20.313Z,35.73
2017-11-07T19:45:47.934Z,33.10
2017-11-07T19:48:15.535Z,31.87
2017-11-07T19:50:43.166Z,29.50
2017-11-07T19:53:10.788Z,30.15
2017-11-07T19:55:38.561Z,32.20
2017-11-07T19:58:06.362Z,30.97
2017-11-07T20:00:34.227Z,30.27
2017-11-07T20:03:01.984Z,28.63
2017-11-07T20:05:29.538Z,29.40
2017-11-07T20:07:57.134Z,30.30
2017-11-07T20:10:24.674Z,29.43
2017-11-07T20:12:53.066Z,30.23
2017-11-07T20:15:20.666Z,29.47
2017-11-07T20:17:48.294Z,29.27
2017-11-07T20:20:15.838Z,30.07
2017-11-07T20:22:43.416Z,29.80
2017-11-07T20:25:10.978Z,30.10
2017-11-07T20:27:38.725Z,29.23
2017-11-07T20:30:10.871Z,29.70
2017-11-07T20:32:38.411Z,28.95
2017-11-07T20:35:05.942Z,28.00
2017-11-07T20:37:33.555Z,33.38
2017-11-07T20:40:01.164Z,30.07
2017-11-07T20:42:28.721Z,28.13
2017-11-07T20:44:56.330Z,31.77
2017-11-07T20:47:23.859Z,27.07
2017-11-07T20:49:51.405Z,29.00
2017-11-07T20:52:19.040Z,29.27
2017-11-07T20:54:46.851Z,27.90
2017-11-07T20:57:14.401Z,27.40
2017-11-07T20:59:41.986Z,27.83
2017-11-07T21:02:09.565Z,27.03
2017-11-07T21:04:37.085Z,28.07
2017-11-07T21:07:04.675Z,28.53
2017-11-07T21:09:32.313Z,31.13
2017-11-07T21:11:59.951Z,28.90
2017-11-07T21:14:27.474Z,27.60
2017-11-07T21:16:55.055Z,29.90
2017-11-07T21:19:22.605Z,28.83
2017-11-07T21:21:51.141Z,28.40
2017-11-07T21:24:18.778Z,29.93
2017-11-07T21:26:46.853Z,27.83
2017-11-07T21:29:14.379Z,29.63
2017-11-07T21:31:41.986Z,29.70
2017-11-07T21:34:09.499Z,28.13
2017-11-07T21:36:37.010Z,31.80
2017-11-07T21:39:05.484Z,27.80
2017-11-07T21:41:33.044Z,29.07
2017-11-07T21:44:00.620Z,30.40
2017-11-07T21:46:28.219Z,30.70
2017-11-07T21:48:55.806Z,29.30
2017-11-07T21:51:23.635Z,29.57
2017-11-07T21:53:51.194Z,29.47
2017-11-07T21:56:18.811Z,29.13
2017-11-07T21:58:46.352Z,29.83
2017-11-07T22:01:13.930Z,28.50
2017-11-07T22:03:41.499Z,29.03
2017-11-07T22:06:09.070Z,29.30
2017-11-07T22:08:36.647Z,28.50
2017-11-07T22:11:04.187Z,26.73
2017-11-07T22:13:31.738Z,27.07
2017-11-07T22:15:59.387Z,28.93
2017-11-07T22:18:26.908Z,27.80
2017-11-07T22:20:54.548Z,27.07
2017-11-07T22:23:25.971Z,24.43
2017-11-07T22:25:53.505Z,23.50
2017-11-07T22:28:21.028Z,24.10
2017-11-07T22:30:48.615Z,23.20
2017-11-07T22:33:16.179Z,24.10
2017-11-07T22:35:43.714Z,23.30
2017-11-07T22:38:11.396Z,22.53
2017-11-07T22:40:38.927Z,23.45
2017-11-07T22:43:06.454Z,25.07
2017-11-07T22:45:34.104Z,24.53
2017-11-07T22:48:01.631Z,22.73
2017-11-07T22:50:29.147Z,23.40
2017-11-07T22:52:56.775Z,22.90
2017-11-07T22:55:24.539Z,21.77
2017-11-07T22:57:52.167Z,23.40
2017-11-07T23:00:19.771Z,19.73
2017-11-07T23:02:47.363Z,21.90
2017-11-07T23:05:14.887Z,21.23
2017-11-07T23:07:42.464Z,23.43
2017-11-07T23:10:10.044Z,21.63
2017-11-07T23:12:37.607Z,23.83
2017-11-07T23:15:05.227Z,22.60
2017-11-07T23:17:33.003Z,21.67
2017-11-07T23:20:00.537Z,23.80
2017-11-07T23:22:28.138Z,23.87
2017-11-07T23:24:55.660Z,22.57
2017-11-07T23:27:23.193Z,25.00
2017-11-07T23:29:50.781Z,25.40
2017-11-07T23:32:18.415Z,23.50
2017-11-07T23:34:46.034Z,25.00
2017-11-07T23:37:13.559Z,24.80
2017-11-07T23:39:41.210Z,24.00
2017-11-07T23:42:08.736Z,25.50
2017-11-07T23:44:36.286Z,24.07
2017-11-07T23:47:03.874Z,24.43
2017-11-07T23:49:31.440Z,24.93
2017-11-07T23:51:58.963Z,26.17
2017-11-07T23:54:26.538Z,24.73
2017-11-07T23:56:54.064Z,25.10
2017-11-07T23:59:21.582Z,24.53
